createdAt,value
2023-04-01T00:01:24.402Z,100005.71
2023-04-01T00:03:55.401Z,100010.30
2023-04-01T00:07:09.576Z,100009.66
2023-04-01T00:09:39.406Z,100007.04
2023-04-01T00:12:08.100Z,100004.23
2023-04-01T00:14:38.451Z,100008.04
2023-04-01T00:17:07.945Z,100009.67
2023-04-01T00:19:36.718Z,100005.16
2023-04-01T00:22:05.659Z,100004.38
2023-04-01T00:24:34.167Z,100005.23
2023-04-01T00:27:02.971Z,100001.73
2023-04-01T00:29:38.462Z,100002.67
2023-04-01T00:32:07.882Z,100000.48
2023-04-01T00:34:36.451Z,100003.60
2023-04-01T00:37:06.093Z,100010.28
2023-04-01T00:39:35.432Z,100012.55
2023-04-01T00:42:04.660Z,100007.58
2023-04-01T00:44:35.500Z,100009.05
2023-04-01T00:47:04.877Z,100004.77
2023-04-01T00:49:35.997Z,100002.36
2023-04-01T00:52:07.184Z,100014.83
2023-04-01T00:54:36.372Z,100007.66
2023-04-01T00:57:35.289Z,100015.77
2023-04-01T01:00:08.517Z,100009.29
2023-04-01T01:02:37.800Z,100012.80
2023-04-01T01:05:07.741Z,100018.41
2023-04-01T01:08:12.575Z,100018.92
2023-04-01T01:10:41.980Z,100010.52
2023-04-01T01:13:34.177Z,100014.81
2023-04-01T01:16:18.393Z,100009.11
2023-04-01T01:19:10.708Z,100009.27
2023-04-01T01:22:17.514Z,100007.05
2023-04-01T01:24:52.226Z,100013.77
2023-04-01T01:27:21.648Z,100016.55
2023-04-01T01:29:53.549Z,100014.61
2023-04-01T01:32:41.469Z,100015.88
2023-04-01T01:35:12.981Z,100015.58
2023-04-01T01:37:42.362Z,100011.34
2023-04-01T01:40:13.185Z,100011.52
2023-04-01T01:42:47.917Z,100010.18
2023-04-01T01:45:19.048Z,100015.08
2023-04-01T01:47:48.347Z,100015.87
2023-04-01T01:50:18.243Z,100013.08
2023-04-01T01:52:47.174Z,100016.83
2023-04-01T01:55:38.638Z,80018.13
2023-04-01T01:58:30.823Z,71286.33
2023-04-01T02:01:02.823Z,35642.41
2023-04-01T02:03:34.386Z,80025.50
2023-04-01T02:06:05.012Z,80023.81
2023-04-01T02:09:00.870Z,100030.23
2023-04-01T02:11:41.496Z,100034.73
2023-04-01T02:14:17.902Z,100037.09
2023-04-01T02:17:05.828Z,100033.95
2023-04-01T02:19:40.852Z,100036.92
2023-04-01T02:22:12.891Z,100036.37
2023-04-01T02:24:41.554Z,100040.58
2023-04-01T02:27:11.455Z,100037.37
2023-04-01T02:29:41.668Z,100038.89
2023-04-01T02:32:10.148Z,100041.84
2023-04-01T02:34:41.479Z,100046.69
2023-04-01T02:37:13.720Z,100044.35
2023-04-01T02:39:44.864Z,100043.24
2023-04-01T02:42:14.905Z,100040.27
2023-04-01T02:44:43.776Z,100051.21
2023-04-01T02:47:16.551Z,100046.24
2023-04-01T02:49:45.687Z,100042.90
2023-04-01T02:52:14.557Z,100044.91
2023-04-01T02:54:46.146Z,100042.13
2023-04-01T02:57:21.287Z,100050.67
2023-04-01T02:59:50.472Z,100050.50
2023-04-01T03:02:19.164Z,100053.91
2023-04-01T03:04:47.688Z,100054.42
2023-04-01T03:07:16.329Z,100050.48
2023-04-01T03:09:45.746Z,100052.17
2023-04-01T03:12:14.343Z,100048.59
2023-04-01T03:14:48.514Z,100047.34
2023-04-01T03:17:17.913Z,100044.39
2023-04-01T03:19:46.982Z,100046.94
2023-04-01T03:22:15.877Z,100047.52
2023-04-01T03:24:45.082Z,100047.44
2023-04-01T03:27:15.662Z,100047.64
2023-04-01T03:29:45.656Z,100061.84
2023-04-01T03:32:16.106Z,100062.45
2023-04-01T03:34:45.687Z,100063.16
2023-04-01T03:37:15.172Z,100070.70
2023-04-01T03:39:49.932Z,100063.80
2023-04-01T03:42:19.838Z,100073.92
2023-04-01T03:44:48.392Z,100071.91
2023-04-01T03:47:18.431Z,100072.05
2023-04-01T03:49:48.585Z,100075.55
2023-04-01T03:52:18.294Z,100077.91
2023-04-01T03:54:46.886Z,100071.49
2023-04-01T03:57:18.888Z,100069.86
2023-04-01T03:59:49.629Z,100071.54
2023-04-01T04:02:18.217Z,100069.27
2023-04-01T04:04:47.721Z,100069.35
2023-04-01T04:07:16.681Z,100076.17
2023-04-01T04:10:07.494Z,100078.80
2023-04-01T04:12:36.134Z,100084.43
2023-04-01T04:15:05.287Z,100092.67
2023-04-01T04:17:34.758Z,100091.88
2023-04-01T04:20:10.050Z,100090.67
2023-04-01T04:22:41.014Z,100089.96
2023-04-01T04:25:10.498Z,100091.77
2023-04-01T04:27:39.891Z,100095.09
2023-04-01T04:30:10.812Z,100097.17
2023-04-01T04:32:39.686Z,100095.18
2023-04-01T04:35:09.101Z,100094.64
2023-04-01T04:37:41.392Z,100099.12
2023-04-01T04:40:12.415Z,100102.70
2023-04-01T04:42:41.442Z,100097.95
2023-04-01T04:45:13.868Z,100098.33
2023-04-01T04:47:48.371Z,100100.59
2023-04-01T04:50:20.055Z,100100.01
2023-04-01T04:52:48.732Z,100101.94
2023-04-01T04:55:17.630Z,100103.98
2023-04-01T04:57:49.526Z,100105.90
2023-04-01T05:00:18.482Z,100100.66
2023-04-01T05:03:10.867Z,100110.95
2023-04-01T05:05:41.029Z,100110.56
2023-04-01T05:08:09.833Z,100112.19
2023-04-01T05:10:40.285Z,100108.55
2023-04-01T05:13:08.903Z,100114.00
2023-04-01T05:15:38.659Z,100119.79
2023-04-01T05:18:07.826Z,100117.77
2023-04-01T05:20:37.572Z,100121.06
2023-04-01T05:23:06.164Z,100117.06
2023-04-01T05:25:39.187Z,100115.51
2023-04-01T05:28:08.464Z,100121.06
2023-04-01T05:30:37.686Z,100126.08
2023-04-01T05:33:21.376Z,100119.61
2023-04-01T05:35:50.139Z,100120.72
2023-04-01T05:38:18.953Z,100125.48
2023-04-01T05:40:47.465Z,100129.02
2023-04-01T05:43:16.224Z,100120.63
2023-04-01T05:45:46.319Z,100120.31
2023-04-01T05:48:14.830Z,100118.52
2023-04-01T05:50:45.056Z,100125.31
2023-04-01T05:53:14.403Z,100122.38
2023-04-01T05:55:44.800Z,100126.30
2023-04-01T05:58:16.417Z,100125.50
2023-04-01T06:00:48.045Z,100123.16
2023-04-01T06:03:34.471Z,100118.53
2023-04-01T06:06:03.308Z,100120.58
2023-04-01T06:08:37.241Z,100116.55
2023-04-01T06:11:33.009Z,100121.21
2023-04-01T06:14:19.169Z,100123.46
2023-04-01T06:16:55.472Z,100123.94
2023-04-01T06:19:42.820Z,100118.49
2023-04-01T06:22:47.474Z,100120.50
2023-04-01T06:25:35.255Z,100115.77
2023-04-01T06:28:42.318Z,100124.02
2023-04-01T06:31:31.388Z,100115.06
2023-04-01T06:34:10.845Z,100122.39
2023-04-01T06:37:11.962Z,100131.29
2023-04-01T06:39:47.381Z,100131.36
2023-04-01T06:42:24.629Z,100137.76
2023-04-01T06:45:45.984Z,100130.02
2023-04-01T06:49:09.478Z,100136.79
2023-04-01T06:52:35.153Z,100124.45
2023-04-01T06:55:44.871Z,100144.23
2023-04-01T06:58:26.142Z,100128.38
2023-04-01T07:01:26.781Z,100127.59
2023-04-01T07:04:02.352Z,100132.73
2023-04-01T07:06:55.959Z,100129.88
2023-04-01T07:09:58.334Z,100136.42
2023-04-01T07:12:58.168Z,100148.59
2023-04-01T07:16:18.221Z,100141.19
2023-04-01T07:19:30.601Z,100150.85
2023-04-01T07:22:23.242Z,100149.84
2023-04-01T07:25:17.968Z,100153.56
2023-04-01T07:28:12.874Z,100148.51
2023-04-01T07:31:05.230Z,100153.81
2023-04-01T07:34:07.928Z,100151.70
2023-04-01T07:36:42.151Z,100152.10
2023-04-01T07:39:28.247Z,100145.89
2023-04-01T07:42:58.455Z,100153.68
2023-04-01T08:01:45.530Z,100157.88
2023-04-01T08:16:58.547Z,100174.65
2023-04-01T08:20:44.332Z,100170.19
2023-04-01T08:23:35.112Z,100182.13
2023-04-01T08:26:34.166Z,100175.42
2023-04-01T08:29:56.691Z,100174.46
2023-04-01T08:44:21.537Z,100178.25
2023-04-01T08:47:07.116Z,100171.88
2023-04-01T08:50:22.175Z,100174.69
2023-04-01T08:53:04.951Z,100173.41
2023-04-01T08:56:28.704Z,100169.78
2023-04-01T08:59:27.892Z,100166.54
2023-04-01T09:02:21.404Z,100177.42
2023-04-01T09:05:05.100Z,100168.41
2023-04-01T09:07:45.100Z,100172.89
2023-04-01T09:10:26.407Z,100171.27
2023-04-01T09:13:30.705Z,100169.88
2023-04-01T09:16:19.210Z,100170.28
2023-04-01T09:18:48.596Z,100179.70
2023-04-01T09:21:29.412Z,100182.34
2023-04-01T09:24:09.946Z,100183.80
2023-04-01T09:27:01.285Z,100183.27
2023-04-01T09:30:03.730Z,100181.66
2023-04-01T09:32:49.943Z,100174.89
2023-04-01T09:35:44.434Z,100177.28
2023-04-01T09:38:20.185Z,100180.30
2023-04-01T09:40:59.099Z,100181.79
2023-04-01T09:43:41.539Z,100181.27
2023-04-01T09:46:22.413Z,100183.29
2023-04-01T09:49:13.270Z,100181.08
2023-04-01T09:51:53.019Z,100187.67
2023-04-01T09:54:52.153Z,100192.02
2023-04-01T09:58:11.529Z,100192.84
2023-04-01T10:01:27.190Z,100194.33
2023-04-01T10:04:03.949Z,100190.54
2023-04-01T10:06:58.492Z,100185.08
2023-04-01T10:09:46.823Z,100187.86
2023-04-01T10:12:42.919Z,100186.17
2023-04-01T10:15:18.828Z,100181.64
2023-04-01T10:18:18.338Z,100177.33
2023-04-01T10:21:16.053Z,100180.21
2023-04-01T10:23:48.144Z,100180.95
2023-04-01T10:26:27.078Z,100183.08
2023-04-01T10:29:37.277Z,100183.39
2023-04-01T10:32:27.812Z,100180.79
2023-04-01T10:35:16.745Z,100174.95
2023-04-01T10:37:52.010Z,100171.28
2023-04-01T10:40:42.325Z,100169.84
2023-04-01T10:43:51.880Z,100169.64
2023-04-01T10:46:30.496Z,100169.69
2023-04-01T10:49:04.512Z,100169.30
2023-04-01T10:52:02.280Z,100168.05
2023-04-01T10:54:56.068Z,100156.77
2023-04-01T10:58:05.645Z,100153.88
2023-04-01T11:01:19.622Z,100154.21
2023-04-01T11:04:37.375Z,100156.19
2023-04-01T11:08:07.310Z,100157.23
2023-04-01T11:11:29.513Z,100151.48
2023-04-01T11:14:29.230Z,100149.80
2023-04-01T11:17:13.945Z,100153.17
2023-04-01T11:20:21.262Z,100152.92
2023-04-01T11:23:01.919Z,100154.77
2023-04-01T11:26:01.083Z,100156.80
2023-04-01T11:29:02.819Z,100166.42
2023-04-01T11:31:52.414Z,100157.05
2023-04-01T11:34:33.420Z,100157.00
2023-04-01T11:37:32.710Z,100157.66
2023-04-01T11:40:36.587Z,100158.52
2023-04-01T11:43:42.299Z,100158.70
2023-04-01T11:47:14.368Z,100157.95
2023-04-01T11:49:55.323Z,100168.65
2023-04-01T11:52:38.546Z,100170.23
2023-04-01T11:55:30.033Z,100163.81
2023-04-01T11:58:10.396Z,100161.34
2023-04-01T12:00:59.409Z,100153.00
2023-04-01T12:03:38.791Z,100164.17
2023-04-01T12:06:37.536Z,100162.38
2023-04-01T12:09:24.709Z,100151.36
2023-04-01T12:12:12.537Z,100164.18
2023-04-01T12:15:10.302Z,100163.93
2023-04-01T12:17:47.705Z,100158.25
2023-04-01T12:20:35.080Z,100157.43
2023-04-01T12:23:32.939Z,100156.07
2023-04-01T12:26:22.844Z,100153.05
2023-04-01T12:29:28.684Z,100156.17
2023-04-01T12:32:19.279Z,100156.92
2023-04-01T12:34:50.798Z,100156.34
2023-04-01T12:38:01.683Z,100150.73
2023-04-01T12:40:47.990Z,100148.96
2023-04-01T12:43:35.541Z,100151.27
2023-04-01T12:46:21.141Z,100155.76
2023-04-01T12:48:59.577Z,100153.73
2023-04-01T12:51:51.670Z,100150.45
2023-04-01T12:54:42.763Z,100149.49
2023-04-01T12:57:17.356Z,100147.11
2023-04-01T13:00:09.683Z,100147.17
2023-04-01T13:03:12.502Z,100149.30
2023-04-01T13:05:56.044Z,100144.43
2023-04-01T13:08:26.200Z,100143.52
2023-04-01T13:11:04.241Z,100145.41
2023-04-01T13:13:36.372Z,100143.48
2023-04-01T13:16:11.968Z,100145.90
2023-04-01T13:19:06.072Z,100141.85
2023-04-01T13:22:07.189Z,100135.77
2023-04-01T13:24:47.168Z,100135.17
2023-04-01T13:27:43.689Z,100131.89
2023-04-01T13:30:18.641Z,100131.14
2023-04-01T13:33:06.679Z,100132.48
2023-04-01T13:36:05.458Z,100133.64
2023-04-01T13:38:54.102Z,100135.86
2023-04-01T13:41:28.672Z,100141.17
2023-04-01T13:44:01.226Z,100139.73
2023-04-01T13:46:36.085Z,100136.35
2023-04-01T13:49:23.539Z,100136.38
2023-04-01T13:51:53.466Z,100139.64
2023-04-01T13:55:01.202Z,100142.14
2023-04-01T13:57:50.720Z,100139.36
2023-04-01T14:00:49.598Z,100139.08
2023-04-01T14:03:54.015Z,100134.83
2023-04-01T14:06:47.507Z,100130.42
2023-04-01T14:09:34.369Z,100134.11
2023-04-01T14:12:17.242Z,100132.41
2023-04-01T14:14:57.416Z,100134.14
2023-04-01T14:17:51.293Z,100130.80
2023-04-01T14:20:32.138Z,100125.98
2023-04-01T14:23:25.773Z,100125.32
2023-04-01T14:25:56.836Z,100119.81
2023-04-01T14:28:37.318Z,100121.15
2023-04-01T14:31:20.414Z,100125.42
2023-04-01T14:34:13.889Z,100124.89
2023-04-01T14:37:08.847Z,100121.39
2023-04-01T14:39:41.558Z,100119.27
2023-04-01T14:42:28.739Z,100120.09
2023-04-01T14:45:14.724Z,100115.14
2023-04-01T14:48:00.242Z,100113.48
2023-04-01T14:50:29.884Z,100113.47
2023-04-01T14:53:24.947Z,100114.17
2023-04-01T14:55:56.390Z,100112.77
2023-04-01T14:58:46.019Z,100112.96
2023-04-01T15:01:29.703Z,100112.10
2023-04-01T15:04:04.533Z,100112.86
2023-04-01T15:07:03.966Z,100113.73
2023-04-01T15:10:21.103Z,100116.23
2023-04-01T15:12:58.737Z,100114.46
2023-04-01T15:15:48.757Z,100114.85
2023-04-01T15:18:42.540Z,100108.55
2023-04-01T15:21:29.876Z,100105.98
2023-04-01T15:24:09.220Z,100103.68
2023-04-01T15:27:11.707Z,100100.38
2023-04-01T15:29:45.349Z,100092.44
2023-04-01T15:32:47.597Z,100092.77
2023-04-01T15:35:31.132Z,100094.90
2023-04-01T15:38:37.576Z,100097.42
2023-04-01T15:41:20.130Z,100097.09
2023-04-01T15:43:50.846Z,100098.93
2023-04-01T15:46:58.374Z,100102.95
2023-04-01T15:49:39.084Z,100099.50
2023-04-01T15:52:31.127Z,100098.66
2023-04-01T15:55:07.895Z,100102.06
2023-04-01T15:57:53.629Z,100111.91
2023-04-01T16:00:24.799Z,100115.65
2023-04-01T16:03:11.231Z,100110.46
2023-04-01T16:06:13.430Z,100114.69
2023-04-01T16:09:00.232Z,100129.46
2023-04-01T16:11:52.058Z,100132.59
2023-04-01T16:14:23.644Z,100135.43
2023-04-01T16:17:16.459Z,100133.27
2023-04-01T16:20:03.343Z,100136.31
2023-04-01T16:22:46.540Z,100135.31
2023-04-01T16:25:39.945Z,100131.95
2023-04-01T16:28:22.713Z,100130.94
2023-04-01T16:31:27.945Z,100132.30
2023-04-01T16:33:59.995Z,100123.63
2023-04-01T16:36:36.434Z,100121.33
2023-04-01T16:39:44.410Z,100119.70
2023-04-01T16:42:34.474Z,100123.80
2023-04-01T16:45:09.230Z,100134.85
2023-04-01T16:48:02.256Z,100136.91
2023-04-01T16:50:48.027Z,100142.46
2023-04-01T16:53:23.063Z,100140.45
2023-04-01T16:55:54.158Z,100141.39
2023-04-01T16:58:28.589Z,100143.02
2023-04-01T17:01:02.786Z,100146.04
2023-04-01T17:03:40.544Z,100143.91
2023-04-01T17:06:27.738Z,100143.55
2023-04-01T17:09:12.006Z,100146.26
2023-04-01T17:12:01.945Z,100151.54
2023-04-01T17:14:49.214Z,100152.73
2023-04-01T17:17:33.226Z,100150.45
2023-04-01T17:20:01.976Z,100148.04
2023-04-01T17:22:43.638Z,100150.79
2023-04-01T17:25:31.011Z,100154.27
2023-04-01T17:28:06.023Z,100152.34
2023-04-01T17:31:22.450Z,100158.02
2023-04-01T17:33:56.980Z,100163.74
2023-04-01T17:36:46.713Z,100161.58
2023-04-01T17:39:28.808Z,100164.64
2023-04-01T17:42:06.626Z,100171.05
2023-04-01T17:44:35.935Z,100172.48
2023-04-01T17:47:10.678Z,100166.98
2023-04-01T17:49:46.108Z,100166.91
2023-04-01T17:52:38.811Z,100169.67
2023-04-01T17:55:26.539Z,100169.69
2023-04-01T17:58:13.385Z,100167.89
2023-04-01T18:01:22.784Z,100170.63
2023-04-01T18:04:33.073Z,100174.46
2023-04-01T18:07:26.263Z,100174.02
2023-04-01T18:10:13.186Z,100180.25
2023-04-01T18:13:09.635Z,100184.44
2023-04-01T18:15:54.848Z,100190.27
2023-04-01T18:18:45.260Z,100183.95
2023-04-01T18:21:38.121Z,100176.45
2023-04-01T18:24:27.473Z,100168.64
2023-04-01T18:27:02.677Z,100174.25
2023-04-01T18:29:52.940Z,100169.02
2023-04-01T18:32:28.739Z,100166.69
2023-04-01T18:35:34.840Z,100169.12
2023-04-01T18:38:05.460Z,100166.23
2023-04-01T18:40:36.060Z,100174.80
2023-04-01T18:43:16.435Z,100172.89
2023-04-01T18:45:50.997Z,100166.48
2023-04-01T18:48:22.792Z,100168.05
2023-04-01T18:51:11.741Z,100168.30
2023-04-01T18:53:44.202Z,100164.78
2023-04-01T18:56:37.290Z,100162.30
2023-04-01T18:59:20.495Z,100164.04
2023-04-01T19:01:58.966Z,100162.33
2023-04-01T19:04:47.823Z,100160.67
2023-04-01T19:07:21.177Z,100157.80
2023-04-01T19:09:51.093Z,100161.14
2023-04-01T19:12:35.511Z,100159.58
2023-04-01T19:15:14.612Z,100158.16
2023-04-01T19:17:52.082Z,100155.58
2023-04-01T19:20:39.484Z,100155.27
2023-04-01T19:23:30.289Z,100156.60
2023-04-01T19:26:00.229Z,100165.27
2023-04-01T19:28:38.567Z,100165.96
2023-04-01T19:31:19.734Z,100165.72
2023-04-01T19:34:27.485Z,100163.62
2023-04-01T19:37:00.780Z,100167.43
2023-04-01T19:39:41.212Z,100162.05
2023-04-01T19:42:27.280Z,100164.86
2023-04-01T19:45:29.762Z,100162.38
2023-04-01T19:47:58.956Z,100161.22
2023-04-01T19:50:50.746Z,100159.58
2023-04-01T19:53:22.372Z,100162.55
2023-04-01T19:56:13.232Z,100161.21
2023-04-01T19:59:03.793Z,100166.37
2023-04-01T20:01:45.195Z,100162.41
2023-04-01T20:04:33.117Z,100160.16
2023-04-01T20:07:02.588Z,100166.85
2023-04-01T20:09:49.665Z,100163.65
2023-04-01T20:12:22.040Z,100164.66
2023-04-01T20:14:52.535Z,100168.17
2023-04-01T20:17:47.242Z,100160.13
2023-04-01T20:20:21.984Z,100163.55
2023-04-01T20:23:08.670Z,100154.44
2023-04-01T20:26:03.037Z,100155.61
2023-04-01T20:28:39.048Z,100159.04
2023-04-01T20:31:18.735Z,100160.20
2023-04-01T20:34:24.121Z,100161.96
2023-04-01T20:39:08.528Z,100162.45
2023-04-01T20:42:03.688Z,100163.33
2023-04-01T20:44:44.765Z,100162.39
2023-04-01T20:47:44.073Z,100161.23
2023-04-01T20:50:25.312Z,100156.95
2023-04-01T20:53:07.082Z,100160.52
2023-04-01T20:55:47.765Z,100149.54
2023-04-01T20:58:25.745Z,100150.62
2023-04-01T21:01:01.201Z,100149.52
2023-04-01T21:03:42.978Z,100145.33
2023-04-01T21:06:36.489Z,100149.42
2023-04-01T21:09:20.522Z,100146.72
2023-04-01T21:12:02.750Z,100147.80
2023-04-01T21:14:45.995Z,100142.89
2023-04-01T21:17:17.607Z,100143.76
2023-04-01T21:20:07.799Z,100143.38
2023-04-01T21:22:46.353Z,100142.12
2023-04-01T21:25:34.178Z,100142.20
2023-04-01T21:28:35.046Z,100140.09
2023-04-01T21:31:17.512Z,100137.91
2023-04-01T21:33:56.402Z,100140.79
2023-04-01T21:36:41.477Z,100142.11
2023-04-01T21:39:48.043Z,100144.86
2023-04-01T21:42:41.939Z,100141.65
2023-04-01T21:45:34.089Z,100139.86
2023-04-01T21:48:30.907Z,100140.48
2023-04-01T21:51:19.774Z,100143.69
2023-04-01T21:53:58.061Z,100137.45
2023-04-01T21:56:59.658Z,100138.30
2023-04-01T21:59:55.403Z,100136.52
2023-04-01T22:02:47.388Z,100132.46
2023-04-01T22:05:23.564Z,100131.29
2023-04-01T22:08:21.295Z,100129.96
2023-04-01T22:11:24.087Z,100124.13
2023-04-01T22:14:03.366Z,100128.02
2023-04-01T22:16:55.332Z,100128.10
2023-04-01T22:19:39.203Z,100125.52
2023-04-01T22:22:13.664Z,100124.73
2023-04-01T22:24:45.229Z,100123.88
2023-04-01T22:27:22.869Z,100120.38
2023-04-01T22:29:59.909Z,100117.73
2023-04-01T22:32:44.173Z,100117.04
2023-04-01T22:35:31.816Z,100115.93
2023-04-01T22:38:01.365Z,100110.71
2023-04-01T22:40:30.201Z,100108.45
2023-04-01T22:43:10.292Z,100103.15
2023-04-01T22:46:11.061Z,100105.96
2023-04-01T22:48:49.124Z,100101.99
2023-04-01T22:51:29.328Z,100097.77
2023-04-01T22:54:11.904Z,100099.02
2023-04-01T22:56:44.812Z,100097.39
2023-04-01T22:59:18.435Z,100096.06
2023-04-01T23:01:59.452Z,100094.59
2023-04-01T23:04:33.491Z,100086.10
2023-04-01T23:07:05.328Z,100085.61
2023-04-01T23:09:37.012Z,100081.73
2023-04-01T23:12:11.297Z,100081.11
2023-04-01T23:14:57.488Z,100086.33
2023-04-01T23:17:33.321Z,100084.92
2023-04-01T23:20:22.912Z,100082.20
2023-04-01T23:22:55.950Z,100084.61
2023-04-01T23:25:46.304Z,100081.20
2023-04-01T23:28:16.156Z,100080.09
2023-04-01T23:30:45.271Z,100078.84
2023-04-01T23:33:20.676Z,100079.91
2023-04-01T23:36:08.430Z,100077.91
2023-04-01T23:38:42.960Z,100078.52
2023-04-01T23:41:21.955Z,100076.17
2023-04-01T23:43:56.705Z,100078.84
2023-04-01T23:46:25.955Z,100078.45
2023-04-01T23:48:55.117Z,100074.95
2023-04-01T23:51:30.182Z,100077.66
2023-04-01T23:54:19.197Z,100077.98
2023-04-01T23:56:49.786Z,100077.52
2023-04-01T23:59:20.057Z,100078.45
